sensor_id;sensor_type;location;lat;lon;timestamp;temperature;humidity
42261;DHT22;27926;48.062;7.474;2023-06-10T00:00:41;19.00;99.90
42261;DHT22;27926;48.062;7.474;2023-06-10T00:03:06;18.90;99.90
42261;DHT22;27926;48.062;7.474;2023-06-10T00:05:30;18.80;99.90
42261;DHT22;27926;48.062;7.474;2023-06-10T00:07:56;18.70;99.90
42261;DHT22;27926;48.062;7.474;2023-06-10T00:10:20;18.60;99.90
42261;DHT22;27926;48.062;7.474;2023-06-10T00:12:45;18.50;99.90
42261;DHT22;27926;48.062;7.474;2023-06-10T00:15:10;18.40;99.90
42261;DHT22;27926;48.062;7.474;2023-06-10T00:17:34;18.40;99.90
42261;DHT22;27926;48.062;7.474;2023-06-10T00:20:03;18.20;99.90
42261;DHT22;27926;48.062;7.474;2023-06-10T00:22:29;18.20;99.90
42261;DHT22;27926;48.062;7.474;2023-06-10T00:24:56;18.10;99.90
42261;DHT22;27926;48.062;7.474;2023-06-10T00:27:21;18.00;99.90
42261;DHT22;27926;48.062;7.474;2023-06-10T00:29:46;18.00;99.90
42261;DHT22;27926;48.062;7.474;2023-06-10T00:32:10;17.90;99.90
42261;DHT22;27926;48.062;7.474;2023-06-10T00:34:35;17.90;99.90
42261;DHT22;27926;48.062;7.474;2023-06-10T00:36:59;18.00;99.90
42261;DHT22;27926;48.062;7.474;2023-06-10T00:39:24;18.00;99.90
42261;DHT22;27926;48.062;7.474;2023-06-10T00:41:49;18.00;99.90
42261;DHT22;27926;48.062;7.474;2023-06-10T00:44:15;17.90;99.90
42261;DHT22;27926;48.062;7.474;2023-06-10T00:46:39;17.90;99.90
42261;DHT22;27926;48.062;7.474;2023-06-10T00:49:04;17.80;99.90
42261;DHT22;27926;48.062;7.474;2023-06-10T00:51:29;17.70;99.90
42261;DHT22;27926;48.062;7.474;2023-06-10T00:53:54;17.60;99.90
42261;DHT22;27926;48.062;7.474;2023-06-10T00:56:20;17.60;99.90
42261;DHT22;27926;48.062;7.474;2023-06-10T00:58:45;17.60;99.90
42261;DHT22;27926;48.062;7.474;2023-06-10T01:01:10;17.50;99.90
42261;DHT22;27926;48.062;7.474;2023-06-10T01:03:35;17.50;99.90
42261;DHT22;27926;48.062;7.474;2023-06-10T01:09:26;17.50;99.90
42261;DHT22;27926;48.062;7.474;2023-06-10T01:11:58;17.50;99.90
42261;DHT22;27926;48.062;7.474;2023-06-10T01:14:26;17.50;99.90
42261;DHT22;27926;48.062;7.474;2023-06-10T01:16:52;17.40;99.90
42261;DHT22;27926;48.062;7.474;2023-06-10T01:19:17;17.30;99.90
42261;DHT22;27926;48.062;7.474;2023-06-10T01:21:42;17.20;99.90
42261;DHT22;27926;48.062;7.474;2023-06-10T01:24:09;17.10;99.90
42261;DHT22;27926;48.062;7.474;2023-06-10T01:26:35;17.10;99.90
42261;DHT22;27926;48.062;7.474;2023-06-10T01:29:08;17.10;99.90
42261;DHT22;27926;48.062;7.474;2023-06-10T01:31:49;16.90;99.90
42261;DHT22;27926;48.062;7.474;2023-06-10T01:34:18;16.80;99.90
42261;DHT22;27926;48.062;7.474;2023-06-10T01:36:46;16.80;99.90
42261;DHT22;27926;48.062;7.474;2023-06-10T01:39:12;16.80;99.90
42261;DHT22;27926;48.062;7.474;2023-06-10T01:41:39;16.80;99.90
42261;DHT22;27926;48.062;7.474;2023-06-10T01:44:04;16.80;99.90
42261;DHT22;27926;48.062;7.474;2023-06-10T01:46:29;16.70;99.90
42261;DHT22;27926;48.062;7.474;2023-06-10T01:48:54;16.70;99.90
42261;DHT22;27926;48.062;7.474;2023-06-10T01:51:18;16.70;99.90
42261;DHT22;27926;48.062;7.474;2023-06-10T01:53:43;16.70;99.90
42261;DHT22;27926;48.062;7.474;2023-06-10T01:56:08;16.60;99.90
42261;DHT22;27926;48.062;7.474;2023-06-10T01:58:32;16.60;99.90
42261;DHT22;27926;48.062;7.474;2023-06-10T02:00:57;16.50;99.90
42261;DHT22;27926;48.062;7.474;2023-06-10T02:03:22;16.50;99.90
42261;DHT22;27926;48.062;7.474;2023-06-10T02:05:46;16.40;99.90
42261;DHT22;27926;48.062;7.474;2023-06-10T02:08:11;16.40;99.90
42261;DHT22;27926;48.062;7.474;2023-06-10T02:10:36;16.40;99.90
42261;DHT22;27926;48.062;7.474;2023-06-10T02:13:00;15.50;99.90
42261;DHT22;27926;48.062;7.474;2023-06-10T02:15:25;16.30;99.90
42261;DHT22;27926;48.062;7.474;2023-06-10T02:17:50;16.30;99.90
42261;DHT22;27926;48.062;7.474;2023-06-10T02:20:15;16.30;99.90
42261;DHT22;27926;48.062;7.474;2023-06-10T02:22:39;16.20;99.90
42261;DHT22;27926;48.062;7.474;2023-06-10T02:25:05;16.20;99.90
42261;DHT22;27926;48.062;7.474;2023-06-10T02:27:30;16.10;99.90
42261;DHT22;27926;48.062;7.474;2023-06-10T02:29:54;16.10;99.90
42261;DHT22;27926;48.062;7.474;2023-06-10T02:32:19;16.00;99.90
42261;DHT22;27926;48.062;7.474;2023-06-10T02:34:43;16.00;99.90
42261;DHT22;27926;48.062;7.474;2023-06-10T02:37:09;16.10;99.90
42261;DHT22;27926;48.062;7.474;2023-06-10T02:39:33;16.10;99.90
42261;DHT22;27926;48.062;7.474;2023-06-10T02:41:58;16.10;99.90
42261;DHT22;27926;48.062;7.474;2023-06-10T02:44:22;16.00;99.90
42261;DHT22;27926;48.062;7.474;2023-06-10T02:46:47;16.10;99.90
42261;DHT22;27926;48.062;7.474;2023-06-10T02:49:12;16.00;99.90
42261;DHT22;27926;48.062;7.474;2023-06-10T02:51:37;16.00;99.90
42261;DHT22;27926;48.062;7.474;2023-06-10T02:54:01;16.00;99.90
42261;DHT22;27926;48.062;7.474;2023-06-10T02:56:26;15.90;99.90
42261;DHT22;27926;48.062;7.474;2023-06-10T02:58:51;15.90;99.90
42261;DHT22;27926;48.062;7.474;2023-06-10T03:01:16;15.90;99.90
42261;DHT22;27926;48.062;7.474;2023-06-10T03:03:42;15.80;99.90
42261;DHT22;27926;48.062;7.474;2023-06-10T03:06:07;15.80;99.90
42261;DHT22;27926;48.062;7.474;2023-06-10T03:08:32;15.70;99.90
42261;DHT22;27926;48.062;7.474;2023-06-10T03:10:57;15.60;99.90
42261;DHT22;27926;48.062;7.474;2023-06-10T03:13:22;15.60;99.90
42261;DHT22;27926;48.062;7.474;2023-06-10T03:15:48;15.60;99.90
42261;DHT22;27926;48.062;7.474;2023-06-10T03:18:12;15.60;99.90
42261;DHT22;27926;48.062;7.474;2023-06-10T03:20:37;15.60;99.90
42261;DHT22;27926;48.062;7.474;2023-06-10T03:23:01;15.60;99.90
42261;DHT22;27926;48.062;7.474;2023-06-10T03:25:26;15.60;99.90
42261;DHT22;27926;48.062;7.474;2023-06-10T03:27:52;15.60;99.90
42261;DHT22;27926;48.062;7.474;2023-06-10T03:30:17;15.60;99.90
42261;DHT22;27926;48.062;7.474;2023-06-10T03:32:42;15.50;99.90
42261;DHT22;27926;48.062;7.474;2023-06-10T03:35:07;15.50;99.90
42261;DHT22;27926;48.062;7.474;2023-06-10T03:37:32;15.40;99.90
42261;DHT22;27926;48.062;7.474;2023-06-10T03:39:57;15.40;99.90
42261;DHT22;27926;48.062;7.474;2023-06-10T03:42:21;15.30;99.90
42261;DHT22;27926;48.062;7.474;2023-06-10T03:44:49;15.30;99.90
42261;DHT22;27926;48.062;7.474;2023-06-10T03:47:13;15.30;99.90
42261;DHT22;27926;48.062;7.474;2023-06-10T03:49:38;15.20;99.90
42261;DHT22;27926;48.062;7.474;2023-06-10T03:52:04;15.30;99.90
42261;DHT22;27926;48.062;7.474;2023-06-10T03:54:29;15.30;99.90
42261;DHT22;27926;48.062;7.474;2023-06-10T03:56:53;15.30;99.90
42261;DHT22;27926;48.062;7.474;2023-06-10T03:59:18;15.40;99.90
42261;DHT22;27926;48.062;7.474;2023-06-10T04:01:43;15.40;99.90
42261;DHT22;27926;48.062;7.474;2023-06-10T04:04:08;15.50;99.90
42261;DHT22;27926;48.062;7.474;2023-06-10T04:06:32;15.50;99.90
42261;DHT22;27926;48.062;7.474;2023-06-10T04:08:58;15.60;99.90
42261;DHT22;27926;48.062;7.474;2023-06-10T04:11:24;15.60;99.90
42261;DHT22;27926;48.062;7.474;2023-06-10T04:13:49;15.70;99.90
42261;DHT22;27926;48.062;7.474;2023-06-10T04:16:14;15.70;99.90
42261;DHT22;27926;48.062;7.474;2023-06-10T04:18:38;15.80;99.90
42261;DHT22;27926;48.062;7.474;2023-06-10T04:21:03;15.80;99.90
42261;DHT22;27926;48.062;7.474;2023-06-10T04:23:28;15.90;99.90
42261;DHT22;27926;48.062;7.474;2023-06-10T04:25:53;15.90;99.90
42261;DHT22;27926;48.062;7.474;2023-06-10T04:28:17;16.00;99.90
42261;DHT22;27926;48.062;7.474;2023-06-10T04:30:42;16.20;99.90
42261;DHT22;27926;48.062;7.474;2023-06-10T04:33:07;16.30;99.90
42261;DHT22;27926;48.062;7.474;2023-06-10T04:35:33;16.50;99.90
42261;DHT22;27926;48.062;7.474;2023-06-10T04:37:58;16.60;99.90
42261;DHT22;27926;48.062;7.474;2023-06-10T04:40:22;16.90;99.90
42261;DHT22;27926;48.062;7.474;2023-06-10T04:42:47;17.50;99.90
42261;DHT22;27926;48.062;7.474;2023-06-10T04:45:12;18.30;99.90
42261;DHT22;27926;48.062;7.474;2023-06-10T04:47:36;19.30;99.90
42261;DHT22;27926;48.062;7.474;2023-06-10T04:50:02;20.20;99.90
42261;DHT22;27926;48.062;7.474;2023-06-10T04:52:27;21.20;99.90
42261;DHT22;27926;48.062;7.474;2023-06-10T04:54:51;22.00;99.90
42261;DHT22;27926;48.062;7.474;2023-06-10T04:57:16;22.50;99.90
42261;DHT22;27926;48.062;7.474;2023-06-10T04:59:41;22.70;99.40
42261;DHT22;27926;48.062;7.474;2023-06-10T05:02:05;22.70;99.60
42261;DHT22;27926;48.062;7.474;2023-06-10T05:04:30;22.70;99.70
42261;DHT22;27926;48.062;7.474;2023-06-10T05:06:55;23.10;99.80
42261;DHT22;27926;48.062;7.474;2023-06-10T05:09:19;23.40;98.80
42261;DHT22;27926;48.062;7.474;2023-06-10T05:11:44;23.50;98.10
42261;DHT22;27926;48.062;7.474;2023-06-10T05:14:09;23.50;98.20
42261;DHT22;27926;48.062;7.474;2023-06-10T05:16:33;23.90;97.70
42261;DHT22;27926;48.062;7.474;2023-06-10T05:18:58;24.20;96.40
42261;DHT22;27926;48.062;7.474;2023-06-10T05:21:22;24.10;96.60
42261;DHT22;27926;48.062;7.474;2023-06-10T05:23:47;24.30;96.40
42261;DHT22;27926;48.062;7.474;2023-06-10T05:26:12;24.40;96.20
42261;DHT22;27926;48.062;7.474;2023-06-10T05:28:37;24.70;95.50
42261;DHT22;27926;48.062;7.474;2023-06-10T05:31:01;24.50;94.90
42261;DHT22;27926;48.062;7.474;2023-06-10T05:33:26;24.70;95.20
42261;DHT22;27926;48.062;7.474;2023-06-10T05:35:51;24.90;95.00
42261;DHT22;27926;48.062;7.474;2023-06-10T05:38:16;24.90;94.30
42261;DHT22;27926;48.062;7.474;2023-06-10T05:40:41;25.00;93.70
42261;DHT22;27926;48.062;7.474;2023-06-10T05:43:05;25.10;93.50
42261;DHT22;27926;48.062;7.474;2023-06-10T05:45:30;25.10;93.60
42261;DHT22;27926;48.062;7.474;2023-06-10T05:47:54;25.10;93.70
42261;DHT22;27926;48.062;7.474;2023-06-10T05:50:20;25.00;93.10
42261;DHT22;27926;48.062;7.474;2023-06-10T05:52:44;24.60;93.60
42261;DHT22;27926;48.062;7.474;2023-06-10T05:55:09;24.90;93.50
42261;DHT22;27926;48.062;7.474;2023-06-10T05:57:34;24.70;93.20
42261;DHT22;27926;48.062;7.474;2023-06-10T05:59:58;24.70;93.10
42261;DHT22;27926;48.062;7.474;2023-06-10T06:02:23;24.90;93.30
42261;DHT22;27926;48.062;7.474;2023-06-10T06:04:48;25.00;93.00
42261;DHT22;27926;48.062;7.474;2023-06-10T06:09:47;25.20;92.80
42261;DHT22;27926;48.062;7.474;2023-06-10T06:12:12;25.20;92.50
42261;DHT22;27926;48.062;7.474;2023-06-10T06:14:38;25.30;92.60
42261;DHT22;27926;48.062;7.474;2023-06-10T06:17:05;25.40;92.80
42261;DHT22;27926;48.062;7.474;2023-06-10T06:19:30;24.90;92.70
42261;DHT22;27926;48.062;7.474;2023-06-10T06:21:54;24.60;93.70
42261;DHT22;27926;48.062;7.474;2023-06-10T06:24:19;24.80;93.60
42261;DHT22;27926;48.062;7.474;2023-06-10T06:26:44;25.30;93.20
42261;DHT22;27926;48.062;7.474;2023-06-10T06:29:09;25.50;92.50
42261;DHT22;27926;48.062;7.474;2023-06-10T06:31:34;25.60;92.80
42261;DHT22;27926;48.062;7.474;2023-06-10T06:33:58;25.90;92.70
42261;DHT22;27926;48.062;7.474;2023-06-10T06:36:23;26.00;92.30
42261;DHT22;27926;48.062;7.474;2023-06-10T06:38:47;25.50;92.60
42261;DHT22;27926;48.062;7.474;2023-06-10T06:41:12;25.30;92.80
42261;DHT22;27926;48.062;7.474;2023-06-10T06:43:37;25.40;92.90
42261;DHT22;27926;48.062;7.474;2023-06-10T06:46:01;25.50;92.90
42261;DHT22;27926;48.062;7.474;2023-06-10T06:48:26;25.40;93.40
42261;DHT22;27926;48.062;7.474;2023-06-10T06:50:51;25.40;93.00
42261;DHT22;27926;48.062;7.474;2023-06-10T06:53:15;25.10;93.00
42261;DHT22;27926;48.062;7.474;2023-06-10T06:55:40;25.00;93.80
42261;DHT22;27926;48.062;7.474;2023-06-10T06:58:05;24.90;93.20
42261;DHT22;27926;48.062;7.474;2023-06-10T07:00:30;24.80;93.50
42261;DHT22;27926;48.062;7.474;2023-06-10T07:02:55;24.70;93.90
42261;DHT22;27926;48.062;7.474;2023-06-10T07:05:19;24.70;94.20
42261;DHT22;27926;48.062;7.474;2023-06-10T07:07:44;24.80;93.70
42261;DHT22;27926;48.062;7.474;2023-06-10T07:10:09;24.90;93.90
42261;DHT22;27926;48.062;7.474;2023-06-10T07:12:34;24.70;94.40
42261;DHT22;27926;48.062;7.474;2023-06-10T07:14:58;24.80;94.50
42261;DHT22;27926;48.062;7.474;2023-06-10T07:17:23;24.90;94.50
42261;DHT22;27926;48.062;7.474;2023-06-10T07:19:48;24.90;94.10
42261;DHT22;27926;48.062;7.474;2023-06-10T07:22:12;25.20;93.80
42261;DHT22;27926;48.062;7.474;2023-06-10T07:24:37;25.20;93.80
42261;DHT22;27926;48.062;7.474;2023-06-10T07:27:02;25.20;94.00
42261;DHT22;27926;48.062;7.474;2023-06-10T07:29:26;25.00;93.80
42261;DHT22;27926;48.062;7.474;2023-06-10T07:31:51;25.20;94.10
42261;DHT22;27926;48.062;7.474;2023-06-10T07:34:15;25.30;93.70
42261;DHT22;27926;48.062;7.474;2023-06-10T07:36:40;25.50;93.50
42261;DHT22;27926;48.062;7.474;2023-06-10T07:39:05;25.60;93.20
42261;DHT22;27926;48.062;7.474;2023-06-10T07:41:30;25.70;93.40
42261;DHT22;27926;48.062;7.474;2023-06-10T07:43:54;25.80;93.10
42261;DHT22;27926;48.062;7.474;2023-06-10T07:46:21;25.70;93.70
42261;DHT22;27926;48.062;7.474;2023-06-10T07:48:46;25.60;93.50
42261;DHT22;27926;48.062;7.474;2023-06-10T07:51:10;25.40;93.60
42261;DHT22;27926;48.062;7.474;2023-06-10T07:53:35;25.10;93.60
42261;DHT22;27926;48.062;7.474;2023-06-10T07:55:59;25.30;93.70
42261;DHT22;27926;48.062;7.474;2023-06-10T07:58:24;25.50;93.40
42261;DHT22;27926;48.062;7.474;2023-06-10T08:00:49;25.40;93.80
42261;DHT22;27926;48.062;7.474;2023-06-10T08:03:13;25.00;94.00
42261;DHT22;27926;48.062;7.474;2023-06-10T08:05:39;25.10;93.70
42261;DHT22;27926;48.062;7.474;2023-06-10T08:08:04;25.00;94.00
42261;DHT22;27926;48.062;7.474;2023-06-10T08:10:29;25.10;94.00
42261;DHT22;27926;48.062;7.474;2023-06-10T08:12:54;25.40;93.80
42261;DHT22;27926;48.062;7.474;2023-06-10T08:15:18;25.70;93.50
42261;DHT22;27926;48.062;7.474;2023-06-10T08:17:43;25.80;93.70
42261;DHT22;27926;48.062;7.474;2023-06-10T08:20:08;25.50;93.70
42261;DHT22;27926;48.062;7.474;2023-06-10T08:22:33;25.70;93.70
42261;DHT22;27926;48.062;7.474;2023-06-10T08:24:58;26.00;93.50
42261;DHT22;27926;48.062;7.474;2023-06-10T08:27:22;26.10;93.30
42261;DHT22;27926;48.062;7.474;2023-06-10T08:29:47;26.10;92.70
42261;DHT22;27926;48.062;7.474;2023-06-10T08:32:12;26.20;93.00
42261;DHT22;27926;48.062;7.474;2023-06-10T08:34:36;26.00;93.10
42261;DHT22;27926;48.062;7.474;2023-06-10T08:37:02;25.90;93.20
42261;DHT22;27926;48.062;7.474;2023-06-10T08:39:26;26.10;93.00
42261;DHT22;27926;48.062;7.474;2023-06-10T08:42:11;26.10;93.30
42261;DHT22;27926;48.062;7.474;2023-06-10T08:44:36;26.00;93.20
42261;DHT22;27926;48.062;7.474;2023-06-10T08:47:16;26.10;93.60
42261;DHT22;27926;48.062;7.474;2023-06-10T08:49:50;26.00;93.30
42261;DHT22;27926;48.062;7.474;2023-06-10T08:52:20;26.00;92.90
42261;DHT22;27926;48.062;7.474;2023-06-10T08:54:52;25.90;93.20
42261;DHT22;27926;48.062;7.474;2023-06-10T08:57:19;25.90;92.80
42261;DHT22;27926;48.062;7.474;2023-06-10T08:59:46;26.20;92.60
42261;DHT22;27926;48.062;7.474;2023-06-10T09:02:11;26.20;92.60
42261;DHT22;27926;48.062;7.474;2023-06-10T09:04:36;26.60;92.80
42261;DHT22;27926;48.062;7.474;2023-06-10T09:07:02;26.80;93.00
42261;DHT22;27926;48.062;7.474;2023-06-10T09:09:28;27.00;92.20
42261;DHT22;27926;48.062;7.474;2023-06-10T09:11:55;26.90;91.80
42261;DHT22;27926;48.062;7.474;2023-06-10T09:14:19;26.80;91.70
42261;DHT22;27926;48.062;7.474;2023-06-10T09:16:44;26.70;92.20
42261;DHT22;27926;48.062;7.474;2023-06-10T09:19:11;26.70;92.10
42261;DHT22;27926;48.062;7.474;2023-06-10T09:21:35;26.50;92.20
42261;DHT22;27926;48.062;7.474;2023-06-10T09:24:00;26.60;92.20
42261;DHT22;27926;48.062;7.474;2023-06-10T09:26:28;26.50;91.40
42261;DHT22;27926;48.062;7.474;2023-06-10T09:29:07;26.50;91.30
42261;DHT22;27926;48.062;7.474;2023-06-10T09:31:36;26.40;91.10
42261;DHT22;27926;48.062;7.474;2023-06-10T09:34:09;26.30;91.30
42261;DHT22;27926;48.062;7.474;2023-06-10T09:36:35;26.40;91.60
42261;DHT22;27926;48.062;7.474;2023-06-10T09:39:03;26.50;91.20
42261;DHT22;27926;48.062;7.474;2023-06-10T09:41:35;26.70;91.10
42261;DHT22;27926;48.062;7.474;2023-06-10T09:43:59;26.70;90.80
42261;DHT22;27926;48.062;7.474;2023-06-10T09:46:25;26.90;90.70
42261;DHT22;27926;48.062;7.474;2023-06-10T09:48:54;27.00;90.80
42261;DHT22;27926;48.062;7.474;2023-06-10T09:51:19;27.10;90.50
42261;DHT22;27926;48.062;7.474;2023-06-10T09:53:48;27.10;90.90
42261;DHT22;27926;48.062;7.474;2023-06-10T09:56:13;27.10;90.40
42261;DHT22;27926;48.062;7.474;2023-06-10T09:58:39;26.90;90.60
42261;DHT22;27926;48.062;7.474;2023-06-10T10:01:09;26.80;90.60
42261;DHT22;27926;48.062;7.474;2023-06-10T10:03:43;26.80;90.50
42261;DHT22;27926;48.062;7.474;2023-06-10T10:06:09;27.00;90.10
42261;DHT22;27926;48.062;7.474;2023-06-10T10:08:33;27.10;90.40
42261;DHT22;27926;48.062;7.474;2023-06-10T10:10:58;27.10;90.20
42261;DHT22;27926;48.062;7.474;2023-06-10T10:13:24;27.10;90.10
42261;DHT22;27926;48.062;7.474;2023-06-10T10:15:50;27.20;90.00
42261;DHT22;27926;48.062;7.474;2023-06-10T10:18:17;27.20;89.90
42261;DHT22;27926;48.062;7.474;2023-06-10T10:20:51;27.30;90.00
42261;DHT22;27926;48.062;7.474;2023-06-10T10:23:41;27.40;90.00
42261;DHT22;27926;48.062;7.474;2023-06-10T10:26:10;27.40;89.50
42261;DHT22;27926;48.062;7.474;2023-06-10T10:28:41;27.20;89.40
42261;DHT22;27926;48.062;7.474;2023-06-10T10:31:09;27.20;90.00
42261;DHT22;27926;48.062;7.474;2023-06-10T10:33:55;27.40;89.60
42261;DHT22;27926;48.062;7.474;2023-06-10T10:36:22;27.40;89.50
42261;DHT22;27926;48.062;7.474;2023-06-10T10:38:48;27.40;90.00
42261;DHT22;27926;48.062;7.474;2023-06-10T10:41:16;27.40;90.10
42261;DHT22;27926;48.062;7.474;2023-06-10T10:43:41;27.50;89.60
42261;DHT22;27926;48.062;7.474;2023-06-10T10:46:12;27.70;89.50
42261;DHT22;27926;48.062;7.474;2023-06-10T10:48:38;27.70;89.20
42261;DHT22;27926;48.062;7.474;2023-06-10T10:51:04;27.80;88.70
42261;DHT22;27926;48.062;7.474;2023-06-10T10:53:29;27.90;89.00
42261;DHT22;27926;48.062;7.474;2023-06-10T10:56:05;27.90;88.00
42261;DHT22;27926;48.062;7.474;2023-06-10T10:58:31;27.90;89.20
42261;DHT22;27926;48.062;7.474;2023-06-10T11:00:56;28.20;88.80
42261;DHT22;27926;48.062;7.474;2023-06-10T11:03:21;28.00;87.00
42261;DHT22;27926;48.062;7.474;2023-06-10T11:05:47;27.80;88.80
42261;DHT22;27926;48.062;7.474;2023-06-10T11:08:13;27.80;87.70
42261;DHT22;27926;48.062;7.474;2023-06-10T11:10:40;28.10;88.10
42261;DHT22;27926;48.062;7.474;2023-06-10T11:13:10;28.20;86.50
42261;DHT22;27926;48.062;7.474;2023-06-10T11:15:50;28.30;85.90
42261;DHT22;27926;48.062;7.474;2023-06-10T11:18:30;28.30;84.70
42261;DHT22;27926;48.062;7.474;2023-06-10T11:21:02;28.20;86.00
42261;DHT22;27926;48.062;7.474;2023-06-10T11:23:39;28.30;86.00
42261;DHT22;27926;48.062;7.474;2023-06-10T11:28:38;28.40;85.70
42261;DHT22;27926;48.062;7.474;2023-06-10T11:31:03;28.40;84.80
42261;DHT22;27926;48.062;7.474;2023-06-10T11:33:28;28.30;85.80
42261;DHT22;27926;48.062;7.474;2023-06-10T11:35:53;28.30;84.60
42261;DHT22;27926;48.062;7.474;2023-06-10T11:38:18;28.40;85.50
42261;DHT22;27926;48.062;7.474;2023-06-10T11:40:48;28.60;84.00
42261;DHT22;27926;48.062;7.474;2023-06-10T11:43:15;28.60;83.20
42261;DHT22;27926;48.062;7.474;2023-06-10T11:45:41;28.50;83.00
42261;DHT22;27926;48.062;7.474;2023-06-10T11:48:06;28.50;83.70
42261;DHT22;27926;48.062;7.474;2023-06-10T11:50:33;28.60;82.90
42261;DHT22;27926;48.062;7.474;2023-06-10T11:52:58;28.80;82.80
42261;DHT22;27926;48.062;7.474;2023-06-10T11:55:23;28.90;81.50
42261;DHT22;27926;48.062;7.474;2023-06-10T11:57:47;29.10;81.30
42261;DHT22;27926;48.062;7.474;2023-06-10T12:00:13;29.10;80.60
42261;DHT22;27926;48.062;7.474;2023-06-10T12:02:37;29.20;81.10
42261;DHT22;27926;48.062;7.474;2023-06-10T12:05:12;29.00;80.70
42261;DHT22;27926;48.062;7.474;2023-06-10T12:07:37;28.80;81.10
42261;DHT22;27926;48.062;7.474;2023-06-10T12:10:02;28.80;80.80
42261;DHT22;27926;48.062;7.474;2023-06-10T12:12:26;28.80;81.60
42261;DHT22;27926;48.062;7.474;2023-06-10T12:14:53;28.80;80.90
42261;DHT22;27926;48.062;7.474;2023-06-10T12:17:18;28.90;80.50
42261;DHT22;27926;48.062;7.474;2023-06-10T12:19:42;28.90;81.40
42261;DHT22;27926;48.062;7.474;2023-06-10T12:22:07;29.00;81.50
42261;DHT22;27926;48.062;7.474;2023-06-10T12:24:31;29.20;82.40
42261;DHT22;27926;48.062;7.474;2023-06-10T12:26:56;29.20;80.90
42261;DHT22;27926;48.062;7.474;2023-06-10T12:29:24;29.30;80.40
42261;DHT22;27926;48.062;7.474;2023-06-10T12:34:17;29.20;81.00
42261;DHT22;27926;48.062;7.474;2023-06-10T12:36:50;29.10;80.30
42261;DHT22;27926;48.062;7.474;2023-06-10T12:39:15;29.20;82.20
42261;DHT22;27926;48.062;7.474;2023-06-10T12:41:39;29.50;80.10
42261;DHT22;27926;48.062;7.474;2023-06-10T12:44:05;29.40;79.10
42261;DHT22;27926;48.062;7.474;2023-06-10T12:46:36;29.50;80.40
42261;DHT22;27926;48.062;7.474;2023-06-10T12:49:01;29.60;80.00
42261;DHT22;27926;48.062;7.474;2023-06-10T12:51:28;29.50;80.10
42261;DHT22;27926;48.062;7.474;2023-06-10T12:53:53;29.50;79.50
42261;DHT22;27926;48.062;7.474;2023-06-10T12:56:18;29.80;82.20
42261;DHT22;27926;48.062;7.474;2023-06-10T12:58:43;29.80;78.90
42261;DHT22;27926;48.062;7.474;2023-06-10T13:01:07;29.90;80.50
42261;DHT22;27926;48.062;7.474;2023-06-10T13:03:32;30.00;80.20
42261;DHT22;27926;48.062;7.474;2023-06-10T13:05:57;30.00;79.50
42261;DHT22;27926;48.062;7.474;2023-06-10T13:08:21;29.80;79.00
42261;DHT22;27926;48.062;7.474;2023-06-10T13:10:46;30.00;79.40
42261;DHT22;27926;48.062;7.474;2023-06-10T13:13:13;30.00;79.30
42261;DHT22;27926;48.062;7.474;2023-06-10T13:15:38;29.90;79.30
42261;DHT22;27926;48.062;7.474;2023-06-10T13:18:03;29.80;79.70
42261;DHT22;27926;48.062;7.474;2023-06-10T13:20:28;29.80;79.70
42261;DHT22;27926;48.062;7.474;2023-06-10T13:22:53;29.80;80.20
42261;DHT22;27926;48.062;7.474;2023-06-10T13:25:18;29.50;79.60
42261;DHT22;27926;48.062;7.474;2023-06-10T13:27:42;29.80;80.60
42261;DHT22;27926;48.062;7.474;2023-06-10T13:30:08;29.90;80.10
42261;DHT22;27926;48.062;7.474;2023-06-10T13:32:33;29.80;79.30
42261;DHT22;27926;48.062;7.474;2023-06-10T13:34:58;29.80;79.80
42261;DHT22;27926;48.062;7.474;2023-06-10T13:37:23;29.70;78.80
42261;DHT22;27926;48.062;7.474;2023-06-10T13:39:47;29.80;79.20
42261;DHT22;27926;48.062;7.474;2023-06-10T13:42:14;29.80;80.10
42261;DHT22;27926;48.062;7.474;2023-06-10T13:44:39;29.80;79.10
42261;DHT22;27926;48.062;7.474;2023-06-10T13:47:04;29.70;81.10
42261;DHT22;27926;48.062;7.474;2023-06-10T13:49:29;29.70;79.00
42261;DHT22;27926;48.062;7.474;2023-06-10T13:51:53;29.60;79.80
42261;DHT22;27926;48.062;7.474;2023-06-10T13:54:18;29.90;80.40
42261;DHT22;27926;48.062;7.474;2023-06-10T13:56:43;30.20;78.20
42261;DHT22;27926;48.062;7.474;2023-06-10T13:59:07;30.30;78.70
42261;DHT22;27926;48.062;7.474;2023-06-10T14:01:32;30.10;77.90
42261;DHT22;27926;48.062;7.474;2023-06-10T14:03:57;29.90;78.10
42261;DHT22;27926;48.062;7.474;2023-06-10T14:06:21;29.70;78.20
42261;DHT22;27926;48.062;7.474;2023-06-10T14:08:46;29.90;77.80
42261;DHT22;27926;48.062;7.474;2023-06-10T14:11:11;30.20;79.60
42261;DHT22;27926;48.062;7.474;2023-06-10T14:13:36;30.60;78.10
42261;DHT22;27926;48.062;7.474;2023-06-10T14:16:03;30.90;79.00
42261;DHT22;27926;48.062;7.474;2023-06-10T14:18:27;31.00;77.00
42261;DHT22;27926;48.062;7.474;2023-06-10T14:20:52;31.00;77.20
42261;DHT22;27926;48.062;7.474;2023-06-10T14:23:16;30.80;76.20
42261;DHT22;27926;48.062;7.474;2023-06-10T14:25:41;30.60;77.30
42261;DHT22;27926;48.062;7.474;2023-06-10T14:28:06;30.30;77.60
42261;DHT22;27926;48.062;7.474;2023-06-10T14:30:30;29.90;79.80
42261;DHT22;27926;48.062;7.474;2023-06-10T14:32:55;29.60;79.20
42261;DHT22;27926;48.062;7.474;2023-06-10T14:35:19;29.40;80.10
42261;DHT22;27926;48.062;7.474;2023-06-10T14:37:45;29.20;79.90
42261;DHT22;27926;48.062;7.474;2023-06-10T14:40:10;29.00;79.50
42261;DHT22;27926;48.062;7.474;2023-06-10T14:42:35;28.80;79.80
42261;DHT22;27926;48.062;7.474;2023-06-10T14:44:59;28.70;80.30
42261;DHT22;27926;48.062;7.474;2023-06-10T14:47:24;28.60;80.40
42261;DHT22;27926;48.062;7.474;2023-06-10T14:49:49;28.80;80.50
42261;DHT22;27926;48.062;7.474;2023-06-10T14:52:14;29.10;79.10
42261;DHT22;27926;48.062;7.474;2023-06-10T14:54:39;29.50;79.20
42261;DHT22;27926;48.062;7.474;2023-06-10T14:57:04;29.80;79.60
42261;DHT22;27926;48.062;7.474;2023-06-10T14:59:30;30.10;79.30
42261;DHT22;27926;48.062;7.474;2023-06-10T15:01:54;30.10;78.40
42261;DHT22;27926;48.062;7.474;2023-06-10T15:04:19;30.00;79.20
42261;DHT22;27926;48.062;7.474;2023-06-10T15:06:43;29.80;78.10
42261;DHT22;27926;48.062;7.474;2023-06-10T15:09:08;30.00;78.50
42261;DHT22;27926;48.062;7.474;2023-06-10T15:11:33;30.20;78.00
42261;DHT22;27926;48.062;7.474;2023-06-10T15:13:57;30.30;79.00
42261;DHT22;27926;48.062;7.474;2023-06-10T15:16:22;30.40;77.50
42261;DHT22;27926;48.062;7.474;2023-06-10T15:18:47;30.40;78.50
42261;DHT22;27926;48.062;7.474;2023-06-10T15:21:11;30.20;77.50
42261;DHT22;27926;48.062;7.474;2023-06-10T15:23:36;30.20;76.90
42261;DHT22;27926;48.062;7.474;2023-06-10T15:26:01;30.10;77.60
42261;DHT22;27926;48.062;7.474;2023-06-10T15:28:25;30.10;77.50
42261;DHT22;27926;48.062;7.474;2023-06-10T15:30:50;30.00;77.10